sensor_id;sensor_type;location;lat;lon;timestamp;pressure;altitude;pressure_sealevel;temperature;humidity
11682;BME280;5897;42.640;23.310;2023-04-06T00:00:22;93612.63;;;0.71;78.44
11682;BME280;5897;42.640;23.310;2023-04-06T00:02:49;93597.88;;;0.88;86.71
11682;BME280;5897;42.640;23.310;2023-04-06T00:05:17;93596.41;;;0.97;85.84
11682;BME280;5897;42.640;23.310;2023-04-06T00:07:44;93605.03;;;0.77;77.89
11682;BME280;5897;42.640;23.310;2023-04-06T00:10:12;93599.72;;;0.73;82.46
11682;BME280;5897;42.640;23.310;2023-04-06T00:12:39;93606.47;;;0.60;79.50
11682;BME280;5897;42.640;23.310;2023-04-06T00:15:07;93604.94;;;0.59;79.90
11682;BME280;5897;42.640;23.310;2023-04-06T00:17:34;93582.91;;;0.55;79.57
11682;BME280;5897;42.640;23.310;2023-04-06T00:20:01;93597.38;;;0.61;77.69
11682;BME280;5897;42.640;23.310;2023-04-06T00:22:28;93585.66;;;0.73;80.09
11682;BME280;5897;42.640;23.310;2023-04-06T00:24:55;93591.72;;;0.66;78.93
11682;BME280;5897;42.640;23.310;2023-04-06T00:27:23;93585.59;;;0.62;77.13
11682;BME280;5897;42.640;23.310;2023-04-06T00:29:50;93596.91;;;0.49;77.35
11682;BME280;5897;42.640;23.310;2023-04-06T00:32:17;93582.44;;;0.43;77.76
11682;BME280;5897;42.640;23.310;2023-04-06T00:34:44;93585.47;;;0.38;77.82
11682;BME280;5897;42.640;23.310;2023-04-06T00:37:11;93576.75;;;0.37;78.72
11682;BME280;5897;42.640;23.310;2023-04-06T00:39:38;93588.44;;;0.29;79.30
11682;BME280;5897;42.640;23.310;2023-04-06T00:42:11;93588.06;;;0.31;79.90
11682;BME280;5897;42.640;23.310;2023-04-06T00:44:40;93572.50;;;0.33;79.60
11682;BME280;5897;42.640;23.310;2023-04-06T00:47:07;93568.00;;;0.37;80.75
11682;BME280;5897;42.640;23.310;2023-04-06T00:49:34;93574.47;;;0.39;80.54
11682;BME280;5897;42.640;23.310;2023-04-06T00:52:01;93561.53;;;0.38;79.44
11682;BME280;5897;42.640;23.310;2023-04-06T00:54:28;93586.59;;;0.37;79.42
11682;BME280;5897;42.640;23.310;2023-04-06T00:56:56;93578.16;;;0.28;79.87
11682;BME280;5897;42.640;23.310;2023-04-06T00:59:22;93581.16;;;0.19;80.08
11682;BME280;5897;42.640;23.310;2023-04-06T01:01:51;93568.34;;;0.35;84.66
11682;BME280;5897;42.640;23.310;2023-04-06T01:04:17;93562.00;;;0.47;82.87
11682;BME280;5897;42.640;23.310;2023-04-06T01:06:44;93558.22;;;0.55;88.34
11682;BME280;5897;42.640;23.310;2023-04-06T01:09:12;93566.22;;;0.62;84.45
11682;BME280;5897;42.640;23.310;2023-04-06T01:11:38;93556.72;;;0.57;87.44
11682;BME280;5897;42.640;23.310;2023-04-06T01:14:05;93547.28;;;0.70;87.66
11682;BME280;5897;42.640;23.310;2023-04-06T01:16:33;93554.84;;;0.61;82.48
11682;BME280;5897;42.640;23.310;2023-04-06T01:19:04;93554.88;;;0.65;81.91
11682;BME280;5897;42.640;23.310;2023-04-06T01:21:33;93551.44;;;0.64;83.58
11682;BME280;5897;42.640;23.310;2023-04-06T01:24:01;93548.03;;;0.60;80.95
11682;BME280;5897;42.640;23.310;2023-04-06T01:26:28;93548.72;;;0.50;83.44
11682;BME280;5897;42.640;23.310;2023-04-06T01:28:55;93544.22;;;0.61;87.98
11682;BME280;5897;42.640;23.310;2023-04-06T01:31:23;93540.06;;;0.64;84.26
11682;BME280;5897;42.640;23.310;2023-04-06T01:33:50;93519.94;;;0.63;90.46
11682;BME280;5897;42.640;23.310;2023-04-06T01:36:17;93546.53;;;0.66;83.99
11682;BME280;5897;42.640;23.310;2023-04-06T01:38:44;93541.59;;;0.72;86.96
11682;BME280;5897;42.640;23.310;2023-04-06T01:41:12;93542.41;;;0.86;89.38
11682;BME280;5897;42.640;23.310;2023-04-06T01:43:39;93549.25;;;0.87;87.20
11682;BME280;5897;42.640;23.310;2023-04-06T01:46:06;93542.13;;;1.05;90.77
11682;BME280;5897;42.640;23.310;2023-04-06T01:48:32;93547.72;;;0.83;82.03
11682;BME280;5897;42.640;23.310;2023-04-06T01:50:59;93529.53;;;0.95;90.46
11682;BME280;5897;42.640;23.310;2023-04-06T01:53:26;93535.25;;;1.04;88.80
11682;BME280;5897;42.640;23.310;2023-04-06T01:55:53;93534.47;;;0.93;83.93
11682;BME280;5897;42.640;23.310;2023-04-06T01:58:22;93536.69;;;0.77;81.27
11682;BME280;5897;42.640;23.310;2023-04-06T02:00:48;93526.78;;;0.67;88.79
11682;BME280;5897;42.640;23.310;2023-04-06T02:03:15;93529.13;;;0.86;88.97
11682;BME280;5897;42.640;23.310;2023-04-06T02:05:42;93529.91;;;0.97;88.33
11682;BME280;5897;42.640;23.310;2023-04-06T02:08:09;93531.78;;;0.83;82.44
11682;BME280;5897;42.640;23.310;2023-04-06T02:10:36;93543.47;;;0.68;80.82
11682;BME280;5897;42.640;23.310;2023-04-06T02:13:02;93541.13;;;0.56;80.71
11682;BME280;5897;42.640;23.310;2023-04-06T02:15:31;93542.22;;;0.44;84.76
11682;BME280;5897;42.640;23.310;2023-04-06T02:17:59;93549.50;;;0.54;82.36
11682;BME280;5897;42.640;23.310;2023-04-06T02:20:26;93547.22;;;0.56;81.71
11682;BME280;5897;42.640;23.310;2023-04-06T02:22:53;93537.28;;;0.46;81.26
11682;BME280;5897;42.640;23.310;2023-04-06T02:25:20;93534.25;;;0.44;82.11
11682;BME280;5897;42.640;23.310;2023-04-06T02:27:46;93554.00;;;0.43;81.88
11682;BME280;5897;42.640;23.310;2023-04-06T02:30:13;93530.84;;;0.47;82.15
11682;BME280;5897;42.640;23.310;2023-04-06T02:32:41;93538.81;;;0.44;82.15
11682;BME280;5897;42.640;23.310;2023-04-06T02:35:08;93543.41;;;0.50;81.69
11682;BME280;5897;42.640;23.310;2023-04-06T02:37:35;93540.72;;;0.47;81.13
11682;BME280;5897;42.640;23.310;2023-04-06T02:40:02;93538.81;;;0.47;81.44
11682;BME280;5897;42.640;23.310;2023-04-06T02:42:29;93530.41;;;0.35;82.83
11682;BME280;5897;42.640;23.310;2023-04-06T02:44:56;93538.06;;;0.43;81.93
11682;BME280;5897;42.640;23.310;2023-04-06T02:47:23;93533.47;;;0.37;81.74
11682;BME280;5897;42.640;23.310;2023-04-06T02:49:51;93512.06;;;0.12;82.38
11682;BME280;5897;42.640;23.310;2023-04-06T02:52:18;93531.59;;;0.44;87.18
11682;BME280;5897;42.640;23.310;2023-04-06T02:54:44;93510.03;;;0.56;94.92
11682;BME280;5897;42.640;23.310;2023-04-06T02:57:11;93522.28;;;0.89;90.23
11682;BME280;5897;42.640;23.310;2023-04-06T02:59:38;93530.56;;;0.66;82.03
11682;BME280;5897;42.640;23.310;2023-04-06T03:02:05;93520.69;;;0.63;83.40
11682;BME280;5897;42.640;23.310;2023-04-06T03:04:32;93526.00;;;0.70;86.00
11682;BME280;5897;42.640;23.310;2023-04-06T03:07:00;93515.47;;;0.88;87.62
11682;BME280;5897;42.640;23.310;2023-04-06T03:09:27;93524.22;;;0.88;84.55
11682;BME280;5897;42.640;23.310;2023-04-06T03:11:53;93517.75;;;0.89;86.19
11682;BME280;5897;42.640;23.310;2023-04-06T03:14:20;93507.81;;;0.72;81.43
11682;BME280;5897;42.640;23.310;2023-04-06T03:16:48;93520.28;;;0.58;81.58
11682;BME280;5897;42.640;23.310;2023-04-06T03:19:15;93523.28;;;0.46;82.15
11682;BME280;5897;42.640;23.310;2023-04-06T03:21:41;93523.66;;;0.51;82.66
11682;BME280;5897;42.640;23.310;2023-04-06T03:24:10;93527.44;;;0.47;81.84
11682;BME280;5897;42.640;23.310;2023-04-06T03:26:38;93530.06;;;0.40;81.98
11682;BME280;5897;42.640;23.310;2023-04-06T03:29:05;93524.34;;;0.38;82.25
11682;BME280;5897;42.640;23.310;2023-04-06T03:31:32;93520.94;;;0.37;82.62
11682;BME280;5897;42.640;23.310;2023-04-06T03:33:58;93525.84;;;0.32;82.79
11682;BME280;5897;42.640;23.310;2023-04-06T03:36:25;93521.31;;;0.36;82.49
11682;BME280;5897;42.640;23.310;2023-04-06T03:38:52;93532.66;;;0.29;82.42
11682;BME280;5897;42.640;23.310;2023-04-06T03:41:21;93536.81;;;0.27;82.88
11682;BME280;5897;42.640;23.310;2023-04-06T03:43:48;93535.66;;;0.24;83.20
11682;BME280;5897;42.640;23.310;2023-04-06T03:46:15;93526.97;;;0.31;82.44
11682;BME280;5897;42.640;23.310;2023-04-06T03:48:42;93539.13;;;0.35;82.48
11682;BME280;5897;42.640;23.310;2023-04-06T03:51:09;93537.63;;;0.34;82.44
11682;BME280;5897;42.640;23.310;2023-04-06T03:53:35;93537.97;;;0.33;82.50
11682;BME280;5897;42.640;23.310;2023-04-06T03:56:03;93530.81;;;0.37;82.55
11682;BME280;5897;42.640;23.310;2023-04-06T03:58:31;93527.41;;;0.40;83.93
11682;BME280;5897;42.640;23.310;2023-04-06T04:00:58;93530.44;;;0.42;81.81
11682;BME280;5897;42.640;23.310;2023-04-06T04:03:25;93530.81;;;0.37;82.14
11682;BME280;5897;42.640;23.310;2023-04-06T04:05:52;93517.56;;;0.47;81.78
11682;BME280;5897;42.640;23.310;2023-04-06T04:08:20;93522.13;;;0.47;81.72
11682;BME280;5897;42.640;23.310;2023-04-06T04:10:47;93528.19;;;0.47;81.26
11682;BME280;5897;42.640;23.310;2023-04-06T04:13:14;93530.84;;;0.51;81.41
11682;BME280;5897;42.640;23.310;2023-04-06T04:15:42;93525.19;;;0.52;81.11
11682;BME280;5897;42.640;23.310;2023-04-06T04:18:09;93525.59;;;0.58;81.11
11682;BME280;5897;42.640;23.310;2023-04-06T04:20:36;93525.63;;;0.68;80.81
11682;BME280;5897;42.640;23.310;2023-04-06T04:23:02;93525.63;;;0.61;81.01
11682;BME280;5897;42.640;23.310;2023-04-06T04:25:29;93533.59;;;0.61;80.69
11682;BME280;5897;42.640;23.310;2023-04-06T04:27:56;93522.59;;;0.66;79.89
11682;BME280;5897;42.640;23.310;2023-04-06T04:30:23;93531.31;;;0.67;80.41
11682;BME280;5897;42.640;23.310;2023-04-06T04:32:51;93537.81;;;0.73;80.18
11682;BME280;5897;42.640;23.310;2023-04-06T04:35:18;93534.03;;;0.77;79.79
11682;BME280;5897;42.640;23.310;2023-04-06T04:37:45;93542.03;;;0.81;79.76
11682;BME280;5897;42.640;23.310;2023-04-06T04:40:12;93538.97;;;0.79;79.83
11682;BME280;5897;42.640;23.310;2023-04-06T04:42:39;93523.41;;;0.77;78.80
11682;BME280;5897;42.640;23.310;2023-04-06T04:45:06;93553.47;;;0.88;79.00
11682;BME280;5897;42.640;23.310;2023-04-06T04:47:33;93541.66;;;0.82;78.83
11682;BME280;5897;42.640;23.310;2023-04-06T04:50:01;93542.03;;;0.77;79.19
11682;BME280;5897;42.640;23.310;2023-04-06T04:52:28;93541.25;;;0.80;78.98
11682;BME280;5897;42.640;23.310;2023-04-06T04:54:55;93545.06;;;0.86;78.48
11682;BME280;5897;42.640;23.310;2023-04-06T04:57:22;93543.56;;;0.92;78.48
11682;BME280;5897;42.640;23.310;2023-04-06T04:59:49;93538.28;;;0.96;78.07
11682;BME280;5897;42.640;23.310;2023-04-06T05:02:16;93540.94;;;0.99;78.03
11682;BME280;5897;42.640;23.310;2023-04-06T05:04:43;93549.34;;;1.08;77.49
11682;BME280;5897;42.640;23.310;2023-04-06T05:07:11;93536.41;;;1.10;77.85
11682;BME280;5897;42.640;23.310;2023-04-06T05:09:38;93542.88;;;1.09;77.96
11682;BME280;5897;42.640;23.310;2023-04-06T05:12:05;93537.19;;;1.21;77.59
11682;BME280;5897;42.640;23.310;2023-04-06T05:14:31;93536.09;;;1.22;77.21
11682;BME280;5897;42.640;23.310;2023-04-06T05:16:58;93535.31;;;1.18;77.16
11682;BME280;5897;42.640;23.310;2023-04-06T05:19:25;93544.88;;;1.37;76.86
11682;BME280;5897;42.640;23.310;2023-04-06T05:21:52;93536.13;;;1.43;75.33
11682;BME280;5897;42.640;23.310;2023-04-06T05:24:24;93529.66;;;1.44;75.57
11682;BME280;5897;42.640;23.310;2023-04-06T05:26:50;93539.94;;;1.56;74.30
11682;BME280;5897;42.640;23.310;2023-04-06T05:29:18;93544.13;;;1.57;74.83
11682;BME280;5897;42.640;23.310;2023-04-06T05:31:45;93543.00;;;1.65;75.73
11682;BME280;5897;42.640;23.310;2023-04-06T05:34:12;93537.28;;;1.70;77.79
11682;BME280;5897;42.640;23.310;2023-04-06T05:36:39;93547.19;;;1.94;75.47
11682;BME280;5897;42.640;23.310;2023-04-06T05:39:06;93545.66;;;2.21;77.29
11682;BME280;5897;42.640;23.310;2023-04-06T05:41:35;93539.88;;;2.54;87.50
11682;BME280;5897;42.640;23.310;2023-04-06T05:44:02;93535.28;;;2.69;87.18
11682;BME280;5897;42.640;23.310;2023-04-06T05:46:28;93530.69;;;2.73;80.06
11682;BME280;5897;42.640;23.310;2023-04-06T05:48:55;93531.41;;;2.87;73.48
11682;BME280;5897;42.640;23.310;2023-04-06T05:51:22;93538.72;;;2.62;74.13
11682;BME280;5897;42.640;23.310;2023-04-06T05:53:49;93533.34;;;2.73;74.42
11682;BME280;5897;42.640;23.310;2023-04-06T05:56:16;93535.28;;;2.65;73.11
11682;BME280;5897;42.640;23.310;2023-04-06T05:58:44;93542.84;;;2.81;73.04
11682;BME280;5897;42.640;23.310;2023-04-06T06:01:11;93514.72;;;2.62;72.90
11682;BME280;5897;42.640;23.310;2023-04-06T06:03:38;93523.50;;;2.63;73.37
11682;BME280;5897;42.640;23.310;2023-04-06T06:06:05;93522.38;;;2.53;73.82
11682;BME280;5897;42.640;23.310;2023-04-06T06:08:32;93523.91;;;2.54;74.11
11682;BME280;5897;42.640;23.310;2023-04-06T06:10:59;93523.91;;;2.54;74.55
11682;BME280;5897;42.640;23.310;2023-04-06T06:13:25;93525.75;;;2.68;74.62
11682;BME280;5897;42.640;23.310;2023-04-06T06:15:54;93524.59;;;2.69;74.06
11682;BME280;5897;42.640;23.310;2023-04-06T06:18:20;93531.84;;;2.65;73.27
11682;BME280;5897;42.640;23.310;2023-04-06T06:20:47;93520.84;;;2.59;73.99
11682;BME280;5897;42.640;23.310;2023-04-06T06:23:14;93529.94;;;2.72;73.16
11682;BME280;5897;42.640;23.310;2023-04-06T06:25:41;93524.97;;;2.74;73.80
11682;BME280;5897;42.640;23.310;2023-04-06T06:28:08;93519.19;;;2.90;72.85
11682;BME280;5897;42.640;23.310;2023-04-06T06:30:35;93512.38;;;2.78;72.84
11682;BME280;5897;42.640;23.310;2023-04-06T06:33:03;93513.03;;;3.03;72.98
11682;BME280;5897;42.640;23.310;2023-04-06T06:35:30;93524.34;;;3.28;72.64
11682;BME280;5897;42.640;23.310;2023-04-06T06:37:57;93528.06;;;3.45;69.49
11682;BME280;5897;42.640;23.310;2023-04-06T06:40:24;93513.28;;;3.33;69.98
11682;BME280;5897;42.640;23.310;2023-04-06T06:42:52;93526.56;;;3.44;70.19
11682;BME280;5897;42.640;23.310;2023-04-06T06:45:19;93520.03;;;3.48;68.74
11682;BME280;5897;42.640;23.310;2023-04-06T06:47:46;93526.81;;;3.63;69.68
11682;BME280;5897;42.640;23.310;2023-04-06T06:50:14;93531.34;;;3.66;67.71
11682;BME280;5897;42.640;23.310;2023-04-06T06:52:41;93524.50;;;3.65;69.51
11682;BME280;5897;42.640;23.310;2023-04-06T06:55:09;93527.69;;;3.46;68.61
11682;BME280;5897;42.640;23.310;2023-04-06T06:57:36;93537.44;;;3.70;69.78
11682;BME280;5897;42.640;23.310;2023-04-06T07:00:04;93531.50;;;4.00;69.91
11682;BME280;5897;42.640;23.310;2023-04-06T07:02:34;93528.25;;;4.22;67.94
11682;BME280;5897;42.640;23.310;2023-04-06T07:05:01;93516.00;;;4.25;67.41
11682;BME280;5897;42.640;23.310;2023-04-06T07:07:29;93524.81;;;4.25;66.56
11682;BME280;5897;42.640;23.310;2023-04-06T07:09:56;93492.75;;;4.22;67.69
11682;BME280;5897;42.640;23.310;2023-04-06T07:12:23;93511.25;;;4.43;68.05
11682;BME280;5897;42.640;23.310;2023-04-06T07:14:49;93518.03;;;4.54;66.08
11682;BME280;5897;42.640;23.310;2023-04-06T07:17:16;93506.03;;;4.66;65.86
11682;BME280;5897;42.640;23.310;2023-04-06T07:19:43;93510.91;;;4.74;64.47
11682;BME280;5897;42.640;23.310;2023-04-06T07:22:10;93514.16;;;4.59;63.51
11682;BME280;5897;42.640;23.310;2023-04-06T07:24:38;93514.19;;;4.55;64.71
11682;BME280;5897;42.640;23.310;2023-04-06T07:27:05;93506.78;;;4.70;64.93
11682;BME280;5897;42.640;23.310;2023-04-06T07:29:32;93510.88;;;4.81;65.01
11682;BME280;5897;42.640;23.310;2023-04-06T07:31:59;93498.56;;;4.87;65.54
11682;BME280;5897;42.640;23.310;2023-04-06T07:34:26;93517.25;;;4.54;62.76
11682;BME280;5897;42.640;23.310;2023-04-06T07:36:53;93518.03;;;4.54;64.20
11682;BME280;5897;42.640;23.310;2023-04-06T07:39:20;93507.94;;;4.69;65.01
11682;BME280;5897;42.640;23.310;2023-04-06T07:41:48;93508.75;;;4.62;64.55
11682;BME280;5897;42.640;23.310;2023-04-06T07:44:15;93505.34;;;4.95;64.22
11682;BME280;5897;42.640;23.310;2023-04-06T07:46:41;93502.50;;;5.09;64.61
11682;BME280;5897;42.640;23.310;2023-04-06T07:49:08;93502.88;;;5.38;63.47
11682;BME280;5897;42.640;23.310;2023-04-06T07:51:36;93511.03;;;5.57;62.03
11682;BME280;5897;42.640;23.310;2023-04-06T07:54:03;93512.94;;;5.57;61.17
11682;BME280;5897;42.640;23.310;2023-04-06T07:56:30;93510.63;;;5.59;60.89
11682;BME280;5897;42.640;23.310;2023-04-06T07:58:58;93504.59;;;5.51;60.06
11682;BME280;5897;42.640;23.310;2023-04-06T08:01:27;93511.84;;;5.24;59.85
11682;BME280;5897;42.640;23.310;2023-04-06T08:03:54;93512.63;;;5.25;60.94
11682;BME280;5897;42.640;23.310;2023-04-06T08:06:21;93508.28;;;5.34;60.09
11682;BME280;5897;42.640;23.310;2023-04-06T08:08:48;93512.38;;;5.42;60.08
11682;BME280;5897;42.640;23.310;2023-04-06T08:11:15;93514.81;;;5.33;60.03
11682;BME280;5897;42.640;23.310;2023-04-06T08:13:42;93516.09;;;5.22;59.68
11682;BME280;5897;42.640;23.310;2023-04-06T08:16:10;93502.94;;;5.04;60.24
11682;BME280;5897;42.640;23.310;2023-04-06T08:18:37;93510.38;;;5.20;60.08
11682;BME280;5897;42.640;23.310;2023-04-06T08:21:03;93518.44;;;4.86;60.06
11682;BME280;5897;42.640;23.310;2023-04-06T08:23:30;93510.13;;;4.77;61.51
11682;BME280;5897;42.640;23.310;2023-04-06T08:25:57;93515.41;;;5.14;61.81
11682;BME280;5897;42.640;23.310;2023-04-06T08:28:24;93517.38;;;5.40;61.41
11682;BME280;5897;42.640;23.310;2023-04-06T08:30:51;93524.34;;;5.34;59.42
11682;BME280;5897;42.640;23.310;2023-04-06T08:33:20;93506.56;;;5.47;59.95
11682;BME280;5897;42.640;23.310;2023-04-06T08:35:46;93514.06;;;5.59;58.67
11682;BME280;5897;42.640;23.310;2023-04-06T08:38:13;93530.00;;;5.43;58.22
11682;BME280;5897;42.640;23.310;2023-04-06T08:40:40;93527.28;;;5.13;58.09
11682;BME280;5897;42.640;23.310;2023-04-06T08:43:13;93521.69;;;5.34;58.08
11682;BME280;5897;42.640;23.310;2023-04-06T08:45:40;93521.09;;;5.76;59.43
11682;BME280;5897;42.640;23.310;2023-04-06T08:48:08;93505.38;;;6.05;59.90
11682;BME280;5897;42.640;23.310;2023-04-06T08:50:38;93530.84;;;6.39;58.17
11682;BME280;5897;42.640;23.310;2023-04-06T08:53:06;93517.91;;;6.34;56.84
11682;BME280;5897;42.640;23.310;2023-04-06T08:55:33;93512.94;;;6.56;57.89
11682;BME280;5897;42.640;23.310;2023-04-06T08:58:00;93513.31;;;6.97;55.93
11682;BME280;5897;42.640;23.310;2023-04-06T09:00:28;93510.47;;;6.65;54.40
11682;BME280;5897;42.640;23.310;2023-04-06T09:02:55;93527.75;;;6.83;55.09
11682;BME280;5897;42.640;23.310;2023-04-06T09:05:25;93517.25;;;6.92;54.79
11682;BME280;5897;42.640;23.310;2023-04-06T09:07:53;93519.78;;;6.99;54.29
11682;BME280;5897;42.640;23.310;2023-04-06T09:10:21;93521.09;;;6.91;52.94
11682;BME280;5897;42.640;23.310;2023-04-06T09:12:49;93521.03;;;6.75;53.76
11682;BME280;5897;42.640;23.310;2023-04-06T09:15:20;93520.69;;;6.50;52.66
11682;BME280;5897;42.640;23.310;2023-04-06T09:17:47;93525.13;;;6.60;54.16
11682;BME280;5897;42.640;23.310;2023-04-06T09:20:14;93529.13;;;6.29;53.21
11682;BME280;5897;42.640;23.310;2023-04-06T09:22:42;93521.53;;;6.24;55.16
11682;BME280;5897;42.640;23.310;2023-04-06T09:25:18;93490.25;;;5.91;55.60
11682;BME280;5897;42.640;23.310;2023-04-06T09:27:46;93512.72;;;6.24;54.87
11682;BME280;5897;42.640;23.310;2023-04-06T09:30:14;93509.63;;;6.48;54.23
11682;BME280;5897;42.640;23.310;2023-04-06T09:32:47;93523.06;;;6.68;52.67
11682;BME280;5897;42.640;23.310;2023-04-06T09:35:14;93517.03;;;6.83;52.29
11682;BME280;5897;42.640;23.310;2023-04-06T09:37:41;93510.66;;;6.54;52.10
11682;BME280;5897;42.640;23.310;2023-04-06T09:40:11;93507.13;;;6.80;54.33
11682;BME280;5897;42.640;23.310;2023-04-06T09:42:40;93520.63;;;6.77;53.44
11682;BME280;5897;42.640;23.310;2023-04-06T09:45:08;93508.78;;;6.74;53.55
11682;BME280;5897;42.640;23.310;2023-04-06T09:47:36;93509.19;;;7.31;52.90
11682;BME280;5897;42.640;23.310;2023-04-06T09:50:07;93515.09;;;7.42;51.35
11682;BME280;5897;42.640;23.310;2023-04-06T09:52:38;93509.94;;;7.67;51.75
11682;BME280;5897;42.640;23.310;2023-04-06T09:55:07;93511.00;;;7.89;51.12
11682;BME280;5897;42.640;23.310;2023-04-06T09:57:42;93499.06;;;7.90;47.83
11682;BME280;5897;42.640;23.310;2023-04-06T10:00:14;93496.53;;;7.83;48.56
11682;BME280;5897;42.640;23.310;2023-04-06T10:02:48;93510.22;;;7.53;48.55
11682;BME280;5897;42.640;23.310;2023-04-06T10:05:22;93514.31;;;7.61;49.32
11682;BME280;5897;42.640;23.310;2023-04-06T10:07:54;93502.56;;;7.87;50.21
11682;BME280;5897;42.640;23.310;2023-04-06T10:10:22;93502.59;;;8.19;49.06
11682;BME280;5897;42.640;23.310;2023-04-06T10:12:51;93486.94;;;8.62;48.17
11682;BME280;5897;42.640;23.310;2023-04-06T10:15:18;93502.75;;;9.17;46.90
11682;BME280;5897;42.640;23.310;2023-04-06T10:17:45;93496.44;;;8.95;45.74
11682;BME280;5897;42.640;23.310;2023-04-06T10:20:15;93490.44;;;9.04;48.15
11682;BME280;5897;42.640;23.310;2023-04-06T10:22:52;93488.78;;;9.35;46.97
11682;BME280;5897;42.640;23.310;2023-04-06T10:25:32;93486.59;;;9.17;47.85
11682;BME280;5897;42.640;23.310;2023-04-06T10:28:01;93490.53;;;9.00;45.34
11682;BME280;5897;42.640;23.310;2023-04-06T10:30:32;93497.75;;;9.03;45.45
11682;BME280;5897;42.640;23.310;2023-04-06T10:32:59;93480.72;;;8.94;46.16
11682;BME280;5897;42.640;23.310;2023-04-06T10:35:36;93491.28;;;8.72;46.04
11682;BME280;5897;42.640;23.310;2023-04-06T10:38:04;93482.38;;;8.59;46.54
11682;BME280;5897;42.640;23.310;2023-04-06T10:40:35;93480.34;;;8.79;48.33
11682;BME280;5897;42.640;23.310;2023-04-06T10:43:11;93470.81;;;8.46;48.27
11682;BME280;5897;42.640;23.310;2023-04-06T10:45:39;93474.00;;;8.57;46.44
11682;BME280;5897;42.640;23.310;2023-04-06T10:48:14;93476.59;;;8.61;47.23
11682;BME280;5897;42.640;23.310;2023-04-06T10:50:41;93483.50;;;8.90;45.58
11682;BME280;5897;42.640;23.310;2023-04-06T10:53:08;93461.19;;;8.61;47.40
11682;BME280;5897;42.640;23.310;2023-04-06T10:55:38;93482.25;;;8.50;48.33
11682;BME280;5897;42.640;23.310;2023-04-06T10:58:06;93460.41;;;8.16;48.69
11682;BME280;5897;42.640;23.310;2023-04-06T11:00:35;93470.72;;;8.50;49.15
11682;BME280;5897;42.640;23.310;2023-04-06T11:03:02;93465.56;;;8.55;49.82
11682;BME280;5897;42.640;23.310;2023-04-06T11:05:29;93463.56;;;8.88;48.77
11682;BME280;5897;42.640;23.310;2023-04-06T11:07:56;93465.44;;;9.03;48.65
11682;BME280;5897;42.640;23.310;2023-04-06T11:10:23;93461.13;;;8.49;47.93
11682;BME280;5897;42.640;23.310;2023-04-06T11:12:54;93457.69;;;8.32;48.02
11682;BME280;5897;42.640;23.310;2023-04-06T11:15:21;93468.44;;;7.68;50.61
11682;BME280;5897;42.640;23.310;2023-04-06T11:17:49;93458.28;;;7.76;50.81
11682;BME280;5897;42.640;23.310;2023-04-06T11:20:16;93459.22;;;8.01;50.37
11682;BME280;5897;42.640;23.310;2023-04-06T11:22:49;93452.41;;;7.97;50.30
11682;BME280;5897;42.640;23.310;2023-04-06T11:25:16;93463.91;;;7.81;49.94
11682;BME280;5897;42.640;23.310;2023-04-06T11:27:43;93455.25;;;7.90;50.07
11682;BME280;5897;42.640;23.310;2023-04-06T11:30:11;93446.34;;;8.09;50.13
11682;BME280;5897;42.640;23.310;2023-04-06T11:32:40;93454.53;;;8.05;49.54
11682;BME280;5897;42.640;23.310;2023-04-06T11:35:10;93443.50;;;7.84;49.80
11682;BME280;5897;42.640;23.310;2023-04-06T11:37:37;93452.81;;;7.79;49.98
11682;BME280;5897;42.640;23.310;2023-04-06T11:40:08;93437.66;;;7.53;50.95
11682;BME280;5897;42.640;23.310;2023-04-06T11:42:35;93447.00;;;7.49;52.01
11682;BME280;5897;42.640;23.310;2023-04-06T11:45:02;93442.69;;;7.35;52.14
11682;BME280;5897;42.640;23.310;2023-04-06T11:47:32;93447.41;;;7.47;51.57
11682;BME280;5897;42.640;23.310;2023-04-06T11:50:06;93438.34;;;7.57;51.19
11682;BME280;5897;42.640;23.310;2023-04-06T11:52:34;93443.91;;;7.66;51.19
11682;BME280;5897;42.640;23.310;2023-04-06T11:55:10;93436.16;;;7.52;50.51
11682;BME280;5897;42.640;23.310;2023-04-06T11:57:38;93437.25;;;7.19;51.46
11682;BME280;5897;42.640;23.310;2023-04-06T12:00:06;93442.50;;;7.26;50.06
11682;BME280;5897;42.640;23.310;2023-04-06T12:02:34;93438.09;;;7.16;50.80
11682;BME280;5897;42.640;23.310;2023-04-06T12:05:01;93439.34;;;7.31;50.26
11682;BME280;5897;42.640;23.310;2023-04-06T12:07:28;93445.00;;;7.17;51.56
11682;BME280;5897;42.640;23.310;2023-04-06T12:09:57;93443.50;;;6.97;52.59
11682;BME280;5897;42.640;23.310;2023-04-06T12:12:24;93444.91;;;7.21;52.44
11682;BME280;5897;42.640;23.310;2023-04-06T12:14:52;93437.94;;;7.23;52.18
11682;BME280;5897;42.640;23.310;2023-04-06T12:17:19;93444.31;;;7.13;52.64
11682;BME280;5897;42.640;23.310;2023-04-06T12:19:47;93436.53;;;7.19;51.44
11682;BME280;5897;42.640;23.310;2023-04-06T12:22:13;93448.94;;;7.13;52.82
11682;BME280;5897;42.640;23.310;2023-04-06T12:24:40;93438.69;;;7.08;52.75
11682;BME280;5897;42.640;23.310;2023-04-06T12:27:08;93434.13;;;6.85;52.72
11682;BME280;5897;42.640;23.310;2023-04-06T12:29:36;93436.25;;;6.94;53.60
11682;BME280;5897;42.640;23.310;2023-04-06T12:32:03;93428.25;;;6.74;53.32
11682;BME280;5897;42.640;23.310;2023-04-06T12:34:30;93431.41;;;6.50;54.04
11682;BME280;5897;42.640;23.310;2023-04-06T12:36:57;93431.16;;;6.41;54.57
11682;BME280;5897;42.640;23.310;2023-04-06T12:39:25;93432.00;;;6.38;54.69
11682;BME280;5897;42.640;23.310;2023-04-06T12:41:52;93436.03;;;6.26;54.48
11682;BME280;5897;42.640;23.310;2023-04-06T12:44:22;93422.28;;;6.24;53.92
11682;BME280;5897;42.640;23.310;2023-04-06T12:46:48;93417.25;;;6.26;53.68
11682;BME280;5897;42.640;23.310;2023-04-06T12:49:15;93421.19;;;6.22;53.41
11682;BME280;5897;42.640;23.310;2023-04-06T12:51:44;93421.34;;;6.34;53.69
11682;BME280;5897;42.640;23.310;2023-04-06T12:54:11;93425.81;;;6.41;53.16
11682;BME280;5897;42.640;23.310;2023-04-06T12:56:38;93422.28;;;6.24;51.92
11682;BME280;5897;42.640;23.310;2023-04-06T12:59:05;93419.78;;;6.14;53.53
11682;BME280;5897;42.640;23.310;2023-04-06T13:01:33;93424.09;;;6.08;53.59
11682;BME280;5897;42.640;23.310;2023-04-06T13:04:00;93410.94;;;6.17;53.41
11682;BME280;5897;42.640;23.310;2023-04-06T13:06:27;93408.00;;;6.08;53.66
11682;BME280;5897;42.640;23.310;2023-04-06T13:08:54;93411.31;;;6.15;53.88
11682;BME280;5897;42.640;23.310;2023-04-06T13:11:20;93414.47;;;6.10;52.60